sensor_id;sensor_type;location;lat;lon;timestamp;P1;durP1;ratioP1;P2;durP2;ratioP2
67595;SDS011;54410;48.694;8.934;2023-09-30T00:00:42;5.13;;;3.00;;
67595;SDS011;54410;48.694;8.934;2023-09-30T00:03:07;5.18;;;3.58;;
67595;SDS011;54410;48.694;8.934;2023-09-30T00:05:36;5.07;;;3.30;;
67595;SDS011;54410;48.694;8.934;2023-09-30T00:08:02;9.35;;;4.30;;
67595;SDS011;54410;48.694;8.934;2023-09-30T00:10:28;4.70;;;2.92;;
67595;SDS011;54410;48.694;8.934;2023-09-30T00:12:55;7.28;;;3.83;;
67595;SDS011;54410;48.694;8.934;2023-09-30T00:15:24;6.82;;;3.80;;
67595;SDS011;54410;48.694;8.934;2023-09-30T00:17:50;7.25;;;3.67;;
67595;SDS011;54410;48.694;8.934;2023-09-30T00:20:16;8.10;;;3.80;;
67595;SDS011;54410;48.694;8.934;2023-09-30T00:22:42;7.78;;;3.40;;
67595;SDS011;54410;48.694;8.934;2023-09-30T00:25:08;6.07;;;3.58;;
67595;SDS011;54410;48.694;8.934;2023-09-30T00:27:35;8.48;;;4.18;;
67595;SDS011;54410;48.694;8.934;2023-09-30T00:30:01;6.95;;;3.40;;
67595;SDS011;54410;48.694;8.934;2023-09-30T00:32:28;7.65;;;3.58;;
67595;SDS011;54410;48.694;8.934;2023-09-30T00:34:54;7.85;;;3.58;;
67595;SDS011;54410;48.694;8.934;2023-09-30T00:37:20;6.13;;;3.83;;
67595;SDS011;54410;48.694;8.934;2023-09-30T00:39:46;8.00;;;3.60;;
67595;SDS011;54410;48.694;8.934;2023-09-30T00:42:12;6.80;;;4.15;;
67595;SDS011;54410;48.694;8.934;2023-09-30T00:44:38;6.28;;;3.70;;
67595;SDS011;54410;48.694;8.934;2023-09-30T00:47:04;8.05;;;3.60;;
67595;SDS011;54410;48.694;8.934;2023-09-30T00:49:30;6.55;;;3.80;;
67595;SDS011;54410;48.694;8.934;2023-09-30T00:51:57;6.82;;;4.05;;
67595;SDS011;54410;48.694;8.934;2023-09-30T00:54:23;6.30;;;3.70;;
67595;SDS011;54410;48.694;8.934;2023-09-30T00:56:50;8.85;;;3.90;;
67595;SDS011;54410;48.694;8.934;2023-09-30T00:59:16;7.68;;;3.58;;
67595;SDS011;54410;48.694;8.934;2023-09-30T01:01:42;7.00;;;3.80;;
67595;SDS011;54410;48.694;8.934;2023-09-30T01:04:09;7.05;;;3.45;;
67595;SDS011;54410;48.694;8.934;2023-09-30T01:06:39;6.72;;;3.28;;
67595;SDS011;54410;48.694;8.934;2023-09-30T01:09:05;9.02;;;3.55;;
67595;SDS011;54410;48.694;8.934;2023-09-30T01:11:31;6.50;;;3.03;;
67595;SDS011;54410;48.694;8.934;2023-09-30T01:13:57;8.10;;;3.58;;
67595;SDS011;54410;48.694;8.934;2023-09-30T01:16:23;6.45;;;3.55;;
67595;SDS011;54410;48.694;8.934;2023-09-30T01:18:49;5.63;;;3.88;;
67595;SDS011;54410;48.694;8.934;2023-09-30T01:21:16;7.25;;;3.72;;
67595;SDS011;54410;48.694;8.934;2023-09-30T01:23:43;5.68;;;3.83;;
67595;SDS011;54410;48.694;8.934;2023-09-30T01:26:12;6.88;;;3.53;;
67595;SDS011;54410;48.694;8.934;2023-09-30T01:28:38;5.88;;;3.78;;
67595;SDS011;54410;48.694;8.934;2023-09-30T01:31:04;6.55;;;3.88;;
67595;SDS011;54410;48.694;8.934;2023-09-30T01:33:31;5.18;;;3.33;;
67595;SDS011;54410;48.694;8.934;2023-09-30T01:35:57;5.15;;;3.40;;
67595;SDS011;54410;48.694;8.934;2023-09-30T01:38:24;4.80;;;3.33;;
67595;SDS011;54410;48.694;8.934;2023-09-30T01:40:50;7.82;;;3.70;;
67595;SDS011;54410;48.694;8.934;2023-09-30T01:43:16;7.55;;;4.05;;
67595;SDS011;54410;48.694;8.934;2023-09-30T01:45:42;4.75;;;3.20;;
67595;SDS011;54410;48.694;8.934;2023-09-30T01:48:09;4.93;;;3.78;;
67595;SDS011;54410;48.694;8.934;2023-09-30T01:50:39;5.70;;;3.30;;
67595;SDS011;54410;48.694;8.934;2023-09-30T01:53:05;5.55;;;3.47;;
67595;SDS011;54410;48.694;8.934;2023-09-30T01:55:34;5.13;;;3.50;;
67595;SDS011;54410;48.694;8.934;2023-09-30T01:58:01;6.20;;;3.63;;
67595;SDS011;54410;48.694;8.934;2023-09-30T02:00:27;8.55;;;3.92;;
67595;SDS011;54410;48.694;8.934;2023-09-30T02:02:54;7.65;;;3.90;;
67595;SDS011;54410;48.694;8.934;2023-09-30T02:05:21;7.47;;;3.47;;
67595;SDS011;54410;48.694;8.934;2023-09-30T02:07:47;6.38;;;3.97;;
67595;SDS011;54410;48.694;8.934;2023-09-30T02:10:13;7.80;;;4.20;;
67595;SDS011;54410;48.694;8.934;2023-09-30T02:12:40;6.53;;;3.92;;
67595;SDS011;54410;48.694;8.934;2023-09-30T02:15:06;6.78;;;3.95;;
67595;SDS011;54410;48.694;8.934;2023-09-30T02:17:32;6.57;;;3.78;;
67595;SDS011;54410;48.694;8.934;2023-09-30T02:19:58;8.00;;;3.78;;
67595;SDS011;54410;48.694;8.934;2023-09-30T02:22:26;6.97;;;3.45;;
67595;SDS011;54410;48.694;8.934;2023-09-30T02:24:53;7.00;;;4.45;;
67595;SDS011;54410;48.694;8.934;2023-09-30T02:27:19;6.47;;;4.05;;
67595;SDS011;54410;48.694;8.934;2023-09-30T02:29:45;7.22;;;3.85;;
67595;SDS011;54410;48.694;8.934;2023-09-30T02:32:11;4.47;;;3.40;;
67595;SDS011;54410;48.694;8.934;2023-09-30T02:34:38;8.60;;;4.10;;
67595;SDS011;54410;48.694;8.934;2023-09-30T02:37:04;5.15;;;3.60;;
67595;SDS011;54410;48.694;8.934;2023-09-30T02:39:30;5.82;;;4.20;;
67595;SDS011;54410;48.694;8.934;2023-09-30T02:41:56;6.55;;;4.05;;
67595;SDS011;54410;48.694;8.934;2023-09-30T02:44:22;4.15;;;3.60;;
67595;SDS011;54410;48.694;8.934;2023-09-30T02:46:48;7.05;;;3.92;;
67595;SDS011;54410;48.694;8.934;2023-09-30T02:49:14;10.00;;;4.03;;
67595;SDS011;54410;48.694;8.934;2023-09-30T02:51:40;6.10;;;3.70;;
67595;SDS011;54410;48.694;8.934;2023-09-30T02:54:06;7.45;;;4.60;;
67595;SDS011;54410;48.694;8.934;2023-09-30T02:56:32;5.93;;;3.92;;
67595;SDS011;54410;48.694;8.934;2023-09-30T02:58:58;6.00;;;4.07;;
67595;SDS011;54410;48.694;8.934;2023-09-30T03:01:25;6.80;;;4.18;;
67595;SDS011;54410;48.694;8.934;2023-09-30T03:03:51;5.95;;;4.00;;
67595;SDS011;54410;48.694;8.934;2023-09-30T03:06:17;6.65;;;4.13;;
67595;SDS011;54410;48.694;8.934;2023-09-30T03:08:43;5.30;;;3.65;;
67595;SDS011;54410;48.694;8.934;2023-09-30T03:11:09;9.70;;;4.20;;
67595;SDS011;54410;48.694;8.934;2023-09-30T03:13:35;4.97;;;4.00;;
67595;SDS011;54410;48.694;8.934;2023-09-30T03:16:02;7.30;;;4.20;;
67595;SDS011;54410;48.694;8.934;2023-09-30T03:18:28;6.75;;;3.97;;
67595;SDS011;54410;48.694;8.934;2023-09-30T03:20:58;5.95;;;4.18;;
67595;SDS011;54410;48.694;8.934;2023-09-30T03:23:25;6.95;;;4.85;;
67595;SDS011;54410;48.694;8.934;2023-09-30T03:25:59;8.43;;;4.25;;
67595;SDS011;54410;48.694;8.934;2023-09-30T03:28:25;5.85;;;4.13;;
67595;SDS011;54410;48.694;8.934;2023-09-30T03:30:51;6.82;;;4.78;;
67595;SDS011;54410;48.694;8.934;2023-09-30T03:33:17;8.95;;;4.47;;
67595;SDS011;54410;48.694;8.934;2023-09-30T03:35:43;5.45;;;3.95;;
67595;SDS011;54410;48.694;8.934;2023-09-30T03:38:10;5.45;;;4.20;;
67595;SDS011;54410;48.694;8.934;2023-09-30T03:40:38;5.45;;;3.88;;
67595;SDS011;54410;48.694;8.934;2023-09-30T03:43:04;5.57;;;3.70;;
67595;SDS011;54410;48.694;8.934;2023-09-30T03:45:35;7.65;;;4.05;;
67595;SDS011;54410;48.694;8.934;2023-09-30T03:48:02;5.40;;;4.10;;
67595;SDS011;54410;48.694;8.934;2023-09-30T03:50:29;6.20;;;3.90;;
67595;SDS011;54410;48.694;8.934;2023-09-30T03:53:01;5.57;;;3.42;;
67595;SDS011;54410;48.694;8.934;2023-09-30T03:55:27;5.05;;;3.15;;
67595;SDS011;54410;48.694;8.934;2023-09-30T03:57:54;7.22;;;3.88;;
67595;SDS011;54410;48.694;8.934;2023-09-30T04:00:20;8.27;;;3.90;;
67595;SDS011;54410;48.694;8.934;2023-09-30T04:02:46;5.95;;;4.05;;
67595;SDS011;54410;48.694;8.934;2023-09-30T04:05:14;5.32;;;4.32;;
67595;SDS011;54410;48.694;8.934;2023-09-30T04:07:42;7.18;;;4.55;;
67595;SDS011;54410;48.694;8.934;2023-09-30T04:10:08;6.30;;;4.28;;
67595;SDS011;54410;48.694;8.934;2023-09-30T04:12:35;4.95;;;3.75;;
67595;SDS011;54410;48.694;8.934;2023-09-30T04:15:02;6.70;;;3.95;;
67595;SDS011;54410;48.694;8.934;2023-09-30T04:17:28;5.82;;;4.05;;
67595;SDS011;54410;48.694;8.934;2023-09-30T04:19:54;7.10;;;4.10;;
67595;SDS011;54410;48.694;8.934;2023-09-30T04:22:20;8.52;;;4.63;;
67595;SDS011;54410;48.694;8.934;2023-09-30T04:24:46;5.97;;;4.18;;
67595;SDS011;54410;48.694;8.934;2023-09-30T04:27:15;5.80;;;3.95;;
67595;SDS011;54410;48.694;8.934;2023-09-30T04:29:41;6.35;;;4.22;;
67595;SDS011;54410;48.694;8.934;2023-09-30T04:32:07;5.88;;;4.20;;
67595;SDS011;54410;48.694;8.934;2023-09-30T04:34:33;5.75;;;4.00;;
67595;SDS011;54410;48.694;8.934;2023-09-30T04:36:59;6.55;;;4.20;;
67595;SDS011;54410;48.694;8.934;2023-09-30T04:39:25;6.00;;;4.60;;
67595;SDS011;54410;48.694;8.934;2023-09-30T04:41:51;6.13;;;4.20;;
67595;SDS011;54410;48.694;8.934;2023-09-30T04:44:18;6.13;;;4.13;;
67595;SDS011;54410;48.694;8.934;2023-09-30T04:46:44;6.13;;;4.65;;
67595;SDS011;54410;48.694;8.934;2023-09-30T04:49:11;8.40;;;4.95;;
67595;SDS011;54410;48.694;8.934;2023-09-30T04:51:37;5.88;;;4.40;;
67595;SDS011;54410;48.694;8.934;2023-09-30T04:54:04;7.45;;;4.93;;
67595;SDS011;54410;48.694;8.934;2023-09-30T04:56:33;9.57;;;4.28;;
67595;SDS011;54410;48.694;8.934;2023-09-30T04:59:00;5.07;;;3.78;;
67595;SDS011;54410;48.694;8.934;2023-09-30T05:01:26;6.78;;;4.15;;
67595;SDS011;54410;48.694;8.934;2023-09-30T05:03:52;6.00;;;4.30;;
67595;SDS011;54410;48.694;8.934;2023-09-30T05:06:18;9.93;;;4.78;;
67595;SDS011;54410;48.694;8.934;2023-09-30T05:08:44;6.18;;;4.32;;
67595;SDS011;54410;48.694;8.934;2023-09-30T05:11:09;5.78;;;4.80;;
67595;SDS011;54410;48.694;8.934;2023-09-30T05:13:35;6.38;;;4.40;;
67595;SDS011;54410;48.694;8.934;2023-09-30T05:16:01;6.63;;;4.45;;
67595;SDS011;54410;48.694;8.934;2023-09-30T05:18:32;6.25;;;4.43;;
67595;SDS011;54410;48.694;8.934;2023-09-30T05:20:58;8.15;;;4.55;;
67595;SDS011;54410;48.694;8.934;2023-09-30T05:23:25;8.10;;;4.65;;
67595;SDS011;54410;48.694;8.934;2023-09-30T05:25:50;5.63;;;4.05;;
67595;SDS011;54410;48.694;8.934;2023-09-30T05:28:17;7.03;;;4.20;;
67595;SDS011;54410;48.694;8.934;2023-09-30T05:30:45;6.75;;;4.50;;
67595;SDS011;54410;48.694;8.934;2023-09-30T05:33:11;7.53;;;4.97;;
67595;SDS011;54410;48.694;8.934;2023-09-30T05:35:39;5.80;;;4.68;;
67595;SDS011;54410;48.694;8.934;2023-09-30T05:38:06;9.38;;;4.75;;
67595;SDS011;54410;48.694;8.934;2023-09-30T05:40:32;7.80;;;4.38;;
67595;SDS011;54410;48.694;8.934;2023-09-30T05:42:58;7.18;;;4.20;;
67595;SDS011;54410;48.694;8.934;2023-09-30T05:45:25;7.68;;;4.47;;
67595;SDS011;54410;48.694;8.934;2023-09-30T05:47:53;9.32;;;4.47;;
67595;SDS011;54410;48.694;8.934;2023-09-30T05:50:20;7.63;;;4.15;;
67595;SDS011;54410;48.694;8.934;2023-09-30T05:52:52;5.50;;;3.92;;
67595;SDS011;54410;48.694;8.934;2023-09-30T05:55:18;6.82;;;4.10;;
67595;SDS011;54410;48.694;8.934;2023-09-30T05:57:50;6.80;;;4.30;;
67595;SDS011;54410;48.694;8.934;2023-09-30T06:00:17;6.05;;;4.40;;
67595;SDS011;54410;48.694;8.934;2023-09-30T06:02:48;6.55;;;4.35;;
67595;SDS011;54410;48.694;8.934;2023-09-30T06:05:14;6.63;;;4.35;;
67595;SDS011;54410;48.694;8.934;2023-09-30T06:07:41;4.97;;;4.03;;
67595;SDS011;54410;48.694;8.934;2023-09-30T06:10:10;5.50;;;4.47;;
67595;SDS011;54410;48.694;8.934;2023-09-30T06:12:36;7.38;;;4.05;;
67595;SDS011;54410;48.694;8.934;2023-09-30T06:15:02;7.43;;;4.20;;
67595;SDS011;54410;48.694;8.934;2023-09-30T06:17:28;5.43;;;3.92;;
67595;SDS011;54410;48.694;8.934;2023-09-30T06:19:54;8.35;;;4.50;;
67595;SDS011;54410;48.694;8.934;2023-09-30T06:22:20;7.25;;;4.63;;
67595;SDS011;54410;48.694;8.934;2023-09-30T06:24:46;6.10;;;4.55;;
67595;SDS011;54410;48.694;8.934;2023-09-30T06:27:13;8.45;;;4.78;;
67595;SDS011;54410;48.694;8.934;2023-09-30T06:29:39;5.88;;;3.85;;
67595;SDS011;54410;48.694;8.934;2023-09-30T06:32:07;5.32;;;3.90;;
67595;SDS011;54410;48.694;8.934;2023-09-30T06:34:33;7.35;;;4.55;;
67595;SDS011;54410;48.694;8.934;2023-09-30T06:36:59;7.68;;;4.45;;
67595;SDS011;54410;48.694;8.934;2023-09-30T06:39:25;7.90;;;3.92;;
67595;SDS011;54410;48.694;8.934;2023-09-30T06:41:51;4.78;;;3.90;;
67595;SDS011;54410;48.694;8.934;2023-09-30T06:44:17;6.93;;;4.18;;
67595;SDS011;54410;48.694;8.934;2023-09-30T06:46:42;7.15;;;4.00;;
67595;SDS011;54410;48.694;8.934;2023-09-30T06:49:08;4.97;;;3.78;;
67595;SDS011;54410;48.694;8.934;2023-09-30T06:51:35;7.93;;;4.00;;
67595;SDS011;54410;48.694;8.934;2023-09-30T06:54:01;4.65;;;3.35;;
67595;SDS011;54410;48.694;8.934;2023-09-30T06:56:31;4.85;;;3.50;;
67595;SDS011;54410;48.694;8.934;2023-09-30T06:58:57;7.82;;;3.70;;
67595;SDS011;54410;48.694;8.934;2023-09-30T07:01:23;7.15;;;4.20;;
67595;SDS011;54410;48.694;8.934;2023-09-30T07:03:49;5.18;;;3.90;;
67595;SDS011;54410;48.694;8.934;2023-09-30T07:06:24;5.13;;;3.55;;
67595;SDS011;54410;48.694;8.934;2023-09-30T07:08:50;7.50;;;4.13;;
67595;SDS011;54410;48.694;8.934;2023-09-30T07:11:16;5.72;;;3.72;;
67595;SDS011;54410;48.694;8.934;2023-09-30T07:13:41;6.28;;;3.70;;
67595;SDS011;54410;48.694;8.934;2023-09-30T07:16:07;5.07;;;4.13;;
67595;SDS011;54410;48.694;8.934;2023-09-30T07:18:33;4.97;;;3.92;;
67595;SDS011;54410;48.694;8.934;2023-09-30T07:20:58;5.85;;;3.78;;
67595;SDS011;54410;48.694;8.934;2023-09-30T07:23:24;4.57;;;3.63;;
67595;SDS011;54410;48.694;8.934;2023-09-30T07:25:49;5.28;;;4.07;;
67595;SDS011;54410;48.694;8.934;2023-09-30T07:28:15;5.40;;;3.70;;
67595;SDS011;54410;48.694;8.934;2023-09-30T07:30:41;9.07;;;3.70;;
67595;SDS011;54410;48.694;8.934;2023-09-30T07:33:07;7.35;;;4.20;;
67595;SDS011;54410;48.694;8.934;2023-09-30T07:35:34;6.53;;;3.92;;
67595;SDS011;54410;48.694;8.934;2023-09-30T07:37:59;9.57;;;3.90;;
67595;SDS011;54410;48.694;8.934;2023-09-30T07:40:25;6.88;;;3.78;;
67595;SDS011;54410;48.694;8.934;2023-09-30T07:42:52;7.55;;;4.50;;
67595;SDS011;54410;48.694;8.934;2023-09-30T07:45:18;7.53;;;4.80;;
67595;SDS011;54410;48.694;8.934;2023-09-30T07:47:46;5.80;;;4.18;;
67595;SDS011;54410;48.694;8.934;2023-09-30T07:50:12;6.90;;;4.22;;
67595;SDS011;54410;48.694;8.934;2023-09-30T07:52:38;8.63;;;4.38;;
67595;SDS011;54410;48.694;8.934;2023-09-30T07:55:08;5.43;;;4.22;;
67595;SDS011;54410;48.694;8.934;2023-09-30T07:57:34;6.50;;;4.55;;
67595;SDS011;54410;48.694;8.934;2023-09-30T08:00:00;7.57;;;4.40;;
67595;SDS011;54410;48.694;8.934;2023-09-30T08:02:30;7.90;;;4.63;;
67595;SDS011;54410;48.694;8.934;2023-09-30T08:04:58;4.95;;;3.85;;
67595;SDS011;54410;48.694;8.934;2023-09-30T08:07:25;8.40;;;4.07;;
67595;SDS011;54410;48.694;8.934;2023-09-30T08:09:51;4.95;;;3.95;;
67595;SDS011;54410;48.694;8.934;2023-09-30T08:12:16;5.80;;;3.85;;
67595;SDS011;54410;48.694;8.934;2023-09-30T08:14:42;9.70;;;3.22;;
67595;SDS011;54410;48.694;8.934;2023-09-30T08:17:11;9.23;;;3.75;;
67595;SDS011;54410;48.694;8.934;2023-09-30T08:19:37;6.25;;;3.22;;
67595;SDS011;54410;48.694;8.934;2023-09-30T08:22:02;7.25;;;2.90;;
67595;SDS011;54410;48.694;8.934;2023-09-30T08:24:31;4.97;;;2.83;;
67595;SDS011;54410;48.694;8.934;2023-09-30T08:26:57;5.88;;;3.60;;
67595;SDS011;54410;48.694;8.934;2023-09-30T08:29:23;6.93;;;3.92;;
67595;SDS011;54410;48.694;8.934;2023-09-30T08:31:48;7.75;;;3.40;;
67595;SDS011;54410;48.694;8.934;2023-09-30T08:34:15;5.15;;;3.35;;
67595;SDS011;54410;48.694;8.934;2023-09-30T08:36:42;6.43;;;3.50;;
67595;SDS011;54410;48.694;8.934;2023-09-30T08:39:08;10.32;;;6.00;;
67595;SDS011;54410;48.694;8.934;2023-09-30T08:41:37;7.68;;;3.80;;
67595;SDS011;54410;48.694;8.934;2023-09-30T08:44:03;6.63;;;4.10;;
67595;SDS011;54410;48.694;8.934;2023-09-30T08:46:30;5.90;;;3.55;;
67595;SDS011;54410;48.694;8.934;2023-09-30T08:49:01;5.85;;;3.13;;
67595;SDS011;54410;48.694;8.934;2023-09-30T08:51:28;6.05;;;3.20;;
67595;SDS011;54410;48.694;8.934;2023-09-30T08:53:55;4.07;;;2.88;;
67595;SDS011;54410;48.694;8.934;2023-09-30T08:56:24;7.43;;;2.97;;
67595;SDS011;54410;48.694;8.934;2023-09-30T08:58:54;5.88;;;3.88;;
67595;SDS011;54410;48.694;8.934;2023-09-30T09:01:22;6.53;;;3.70;;
67595;SDS011;54410;48.694;8.934;2023-09-30T09:03:49;6.28;;;3.95;;
67595;SDS011;54410;48.694;8.934;2023-09-30T09:06:17;5.55;;;3.60;;
67595;SDS011;54410;48.694;8.934;2023-09-30T09:08:47;5.75;;;3.95;;
67595;SDS011;54410;48.694;8.934;2023-09-30T09:11:13;6.30;;;3.40;;
67595;SDS011;54410;48.694;8.934;2023-09-30T09:13:52;4.90;;;3.03;;
67595;SDS011;54410;48.694;8.934;2023-09-30T09:16:21;5.13;;;3.53;;
67595;SDS011;54410;48.694;8.934;2023-09-30T09:18:47;5.55;;;3.10;;
67595;SDS011;54410;48.694;8.934;2023-09-30T09:21:14;4.47;;;2.83;;
67595;SDS011;54410;48.694;8.934;2023-09-30T09:23:41;5.50;;;3.60;;
67595;SDS011;54410;48.694;8.934;2023-09-30T09:26:09;5.25;;;3.20;;
67595;SDS011;54410;48.694;8.934;2023-09-30T09:28:35;7.25;;;3.00;;
67595;SDS011;54410;48.694;8.934;2023-09-30T09:31:03;3.08;;;2.65;;
67595;SDS011;54410;48.694;8.934;2023-09-30T09:33:45;5.53;;;3.15;;
67595;SDS011;54410;48.694;8.934;2023-09-30T09:36:10;3.85;;;2.97;;
67595;SDS011;54410;48.694;8.934;2023-09-30T09:38:46;3.83;;;2.90;;
67595;SDS011;54410;48.694;8.934;2023-09-30T09:41:13;3.78;;;2.90;;
67595;SDS011;54410;48.694;8.934;2023-09-30T09:43:41;5.38;;;2.90;;
67595;SDS011;54410;48.694;8.934;2023-09-30T09:46:08;3.78;;;2.67;;
67595;SDS011;54410;48.694;8.934;2023-09-30T09:48:35;4.78;;;3.08;;
67595;SDS011;54410;48.694;8.934;2023-09-30T09:51:01;6.50;;;3.35;;
67595;SDS011;54410;48.694;8.934;2023-09-30T09:53:29;4.75;;;3.10;;
67595;SDS011;54410;48.694;8.934;2023-09-30T09:55:56;5.90;;;3.42;;
67595;SDS011;54410;48.694;8.934;2023-09-30T09:58:33;5.38;;;3.28;;
67595;SDS011;54410;48.694;8.934;2023-09-30T10:01:01;10.20;;;6.40;;
67595;SDS011;54410;48.694;8.934;2023-09-30T10:03:27;6.40;;;4.13;;
67595;SDS011;54410;48.694;8.934;2023-09-30T10:05:53;8.07;;;4.03;;
67595;SDS011;54410;48.694;8.934;2023-09-30T10:08:19;7.93;;;3.78;;
67595;SDS011;54410;48.694;8.934;2023-09-30T10:10:45;9.27;;;3.83;;
67595;SDS011;54410;48.694;8.934;2023-09-30T10:19:13;7.10;;;4.10;;
67595;SDS011;54410;48.694;8.934;2023-09-30T10:21:40;6.70;;;4.22;;
67595;SDS011;54410;48.694;8.934;2023-09-30T10:24:28;10.07;;;4.10;;
67595;SDS011;54410;48.694;8.934;2023-09-30T10:29:39;7.00;;;4.32;;
67595;SDS011;54410;48.694;8.934;2023-09-30T10:32:06;6.43;;;4.30;;
67595;SDS011;54410;48.694;8.934;2023-09-30T10:34:32;4.72;;;3.65;;
67595;SDS011;54410;48.694;8.934;2023-09-30T10:36:57;6.10;;;3.92;;
67595;SDS011;54410;48.694;8.934;2023-09-30T10:42:42;9.05;;;4.50;;
67595;SDS011;54410;48.694;8.934;2023-09-30T10:45:04;6.15;;;4.28;;
67595;SDS011;54410;48.694;8.934;2023-09-30T10:50:02;8.63;;;4.68;;
67595;SDS011;54410;48.694;8.934;2023-09-30T10:52:29;10.70;;;4.95;;
67595;SDS011;54410;48.694;8.934;2023-09-30T10:55:01;9.88;;;4.30;;
67595;SDS011;54410;48.694;8.934;2023-09-30T10:57:29;10.55;;;4.85;;
67595;SDS011;54410;48.694;8.934;2023-09-30T11:00:15;8.45;;;4.82;;
67595;SDS011;54410;48.694;8.934;2023-09-30T11:02:48;11.75;;;5.38;;
67595;SDS011;54410;48.694;8.934;2023-09-30T11:05:14;6.70;;;4.13;;
67595;SDS011;54410;48.694;8.934;2023-09-30T11:07:40;8.90;;;5.00;;
67595;SDS011;54410;48.694;8.934;2023-09-30T11:10:07;10.75;;;4.93;;
67595;SDS011;54410;48.694;8.934;2023-09-30T11:12:33;7.22;;;4.40;;
67595;SDS011;54410;48.694;8.934;2023-09-30T11:14:59;13.20;;;5.50;;
67595;SDS011;54410;48.694;8.934;2023-09-30T11:17:26;9.10;;;4.88;;
67595;SDS011;54410;48.694;8.934;2023-09-30T11:19:52;9.68;;;5.00;;
67595;SDS011;54410;48.694;8.934;2023-09-30T11:22:19;9.63;;;5.10;;
67595;SDS011;54410;48.694;8.934;2023-09-30T11:24:45;9.93;;;4.45;;
67595;SDS011;54410;48.694;8.934;2023-09-30T11:27:11;11.18;;;5.13;;
67595;SDS011;54410;48.694;8.934;2023-09-30T11:29:47;10.68;;;5.18;;
67595;SDS011;54410;48.694;8.934;2023-09-30T11:32:22;9.82;;;4.70;;
67595;SDS011;54410;48.694;8.934;2023-09-30T11:34:52;10.60;;;5.00;;
67595;SDS011;54410;48.694;8.934;2023-09-30T11:37:18;9.98;;;5.10;;
67595;SDS011;54410;48.694;8.934;2023-09-30T11:39:44;9.93;;;4.90;;
67595;SDS011;54410;48.694;8.934;2023-09-30T11:42:16;11.98;;;5.13;;
67595;SDS011;54410;48.694;8.934;2023-09-30T11:44:44;10.18;;;4.88;;
67595;SDS011;54410;48.694;8.934;2023-09-30T11:47:15;7.35;;;4.30;;
67595;SDS011;54410;48.694;8.934;2023-09-30T11:49:45;7.35;;;4.57;;
67595;SDS011;54410;48.694;8.934;2023-09-30T11:52:25;9.10;;;4.93;;
67595;SDS011;54410;48.694;8.934;2023-09-30T11:54:51;12.43;;;5.00;;
67595;SDS011;54410;48.694;8.934;2023-09-30T11:57:18;7.60;;;4.55;;
67595;SDS011;54410;48.694;8.934;2023-09-30T11:59:44;8.88;;;5.00;;
67595;SDS011;54410;48.694;8.934;2023-09-30T12:02:11;8.95;;;5.22;;
67595;SDS011;54410;48.694;8.934;2023-09-30T12:04:37;8.75;;;4.78;;
67595;SDS011;54410;48.694;8.934;2023-09-30T12:07:03;8.88;;;4.97;;
67595;SDS011;54410;48.694;8.934;2023-09-30T12:09:31;10.68;;;5.15;;
67595;SDS011;54410;48.694;8.934;2023-09-30T12:11:57;8.10;;;4.35;;
67595;SDS011;54410;48.694;8.934;2023-09-30T12:14:24;9.40;;;4.68;;
67595;SDS011;54410;48.694;8.934;2023-09-30T12:16:50;8.70;;;5.18;;
67595;SDS011;54410;48.694;8.934;2023-09-30T12:19:16;9.90;;;4.93;;
67595;SDS011;54410;48.694;8.934;2023-09-30T12:21:43;8.75;;;4.93;;
67595;SDS011;54410;48.694;8.934;2023-09-30T12:24:11;8.90;;;4.45;;
67595;SDS011;54410;48.694;8.934;2023-09-30T12:26:41;9.02;;;5.35;;
67595;SDS011;54410;48.694;8.934;2023-09-30T12:29:20;8.80;;;5.45;;
67595;SDS011;54410;48.694;8.934;2023-09-30T12:31:47;8.07;;;4.70;;
67595;SDS011;54410;48.694;8.934;2023-09-30T12:34:13;8.10;;;4.85;;
67595;SDS011;54410;48.694;8.934;2023-09-30T12:36:40;6.85;;;4.50;;
67595;SDS011;54410;48.694;8.934;2023-09-30T12:39:06;8.13;;;4.72;;
67595;SDS011;54410;48.694;8.934;2023-09-30T12:41:38;8.98;;;4.60;;
67595;SDS011;54410;48.694;8.934;2023-09-30T12:44:05;9.75;;;4.70;;
67595;SDS011;54410;48.694;8.934;2023-09-30T12:46:32;8.18;;;4.57;;
67595;SDS011;54410;48.694;8.934;2023-09-30T12:49:00;8.07;;;4.38;;
67595;SDS011;54410;48.694;8.934;2023-09-30T12:51:27;7.20;;;4.47;;
67595;SDS011;54410;48.694;8.934;2023-09-30T12:53:53;8.63;;;4.85;;
67595;SDS011;54410;48.694;8.934;2023-09-30T12:56:19;7.57;;;4.70;;
67595;SDS011;54410;48.694;8.934;2023-09-30T12:58:45;7.68;;;4.72;;
67595;SDS011;54410;48.694;8.934;2023-09-30T13:01:11;6.82;;;4.22;;
67595;SDS011;54410;48.694;8.934;2023-09-30T13:03:37;8.80;;;4.72;;
67595;SDS011;54410;48.694;8.934;2023-09-30T13:06:03;9.18;;;4.60;;
67595;SDS011;54410;48.694;8.934;2023-09-30T13:08:29;8.57;;;4.60;;
67595;SDS011;54410;48.694;8.934;2023-09-30T13:11:02;9.15;;;5.20;;
67595;SDS011;54410;48.694;8.934;2023-09-30T13:13:29;8.45;;;4.78;;
67595;SDS011;54410;48.694;8.934;2023-09-30T13:15:56;5.30;;;4.18;;
67595;SDS011;54410;48.694;8.934;2023-09-30T13:18:22;9.75;;;4.57;;
67595;SDS011;54410;48.694;8.934;2023-09-30T13:20:48;8.85;;;4.50;;
67595;SDS011;54410;48.694;8.934;2023-09-30T13:23:14;11.57;;;4.75;;
67595;SDS011;54410;48.694;8.934;2023-09-30T13:25:40;7.78;;;4.28;;
67595;SDS011;54410;48.694;8.934;2023-09-30T13:28:07;6.65;;;4.32;;
67595;SDS011;54410;48.694;8.934;2023-09-30T13:30:32;8.05;;;4.78;;
67595;SDS011;54410;48.694;8.934;2023-09-30T13:32:58;10.05;;;4.38;;
67595;SDS011;54410;48.694;8.934;2023-09-30T13:35:24;9.50;;;4.43;;
67595;SDS011;54410;48.694;8.934;2023-09-30T13:37:50;8.80;;;4.43;;
67595;SDS011;54410;48.694;8.934;2023-09-30T13:40:17;7.28;;;4.32;;
67595;SDS011;54410;48.694;8.934;2023-09-30T13:42:43;7.00;;;3.90;;
67595;SDS011;54410;48.694;8.934;2023-09-30T13:45:09;8.05;;;4.28;;
67595;SDS011;54410;48.694;8.934;2023-09-30T13:47:35;7.72;;;4.50;;
67595;SDS011;54410;48.694;8.934;2023-09-30T13:50:02;8.38;;;4.15;;
67595;SDS011;54410;48.694;8.934;2023-09-30T13:52:33;11.38;;;4.53;;
67595;SDS011;54410;48.694;8.934;2023-09-30T13:55:01;8.35;;;4.30;;
67595;SDS011;54410;48.694;8.934;2023-09-30T13:57:28;6.00;;;4.20;;
67595;SDS011;54410;48.694;8.934;2023-09-30T13:59:54;8.77;;;4.50;;
67595;SDS011;54410;48.694;8.934;2023-09-30T14:02:20;7.68;;;4.30;;
67595;SDS011;54410;48.694;8.934;2023-09-30T14:04:47;6.55;;;4.40;;
67595;SDS011;54410;48.694;8.934;2023-09-30T14:07:13;15.30;;;5.18;;
67595;SDS011;54410;48.694;8.934;2023-09-30T14:09:39;9.18;;;4.47;;
67595;SDS011;54410;48.694;8.934;2023-09-30T14:12:05;6.93;;;4.65;;
67595;SDS011;54410;48.694;8.934;2023-09-30T14:14:32;6.88;;;4.13;;
67595;SDS011;54410;48.694;8.934;2023-09-30T14:16:59;7.97;;;4.43;;
67595;SDS011;54410;48.694;8.934;2023-09-30T14:19:25;7.05;;;4.05;;
67595;SDS011;54410;48.694;8.934;2023-09-30T14:21:52;6.25;;;3.97;;
67595;SDS011;54410;48.694;8.934;2023-09-30T14:24:18;10.48;;;4.60;;
67595;SDS011;54410;48.694;8.934;2023-09-30T14:26:44;7.70;;;4.20;;
67595;SDS011;54410;48.694;8.934;2023-09-30T14:29:10;5.40;;;3.90;;
67595;SDS011;54410;48.694;8.934;2023-09-30T14:31:37;9.10;;;4.10;;
67595;SDS011;54410;48.694;8.934;2023-09-30T14:34:03;7.68;;;4.28;;
67595;SDS011;54410;48.694;8.934;2023-09-30T14:36:30;8.35;;;4.80;;
67595;SDS011;54410;48.694;8.934;2023-09-30T14:38:58;7.03;;;3.88;;
67595;SDS011;54410;48.694;8.934;2023-09-30T14:41:24;7.43;;;4.50;;
67595;SDS011;54410;48.694;8.934;2023-09-30T14:43:50;19.35;;;5.75;;
67595;SDS011;54410;48.694;8.934;2023-09-30T14:46:16;10.32;;;4.68;;
67595;SDS011;54410;48.694;8.934;2023-09-30T14:48:42;7.63;;;4.60;;
67595;SDS011;54410;48.694;8.934;2023-09-30T14:51:08;10.88;;;5.20;;
67595;SDS011;54410;48.694;8.934;2023-09-30T14:53:34;16.15;;;5.07;;
67595;SDS011;54410;48.694;8.934;2023-09-30T14:56:01;37.88;;;7.18;;
67595;SDS011;54410;48.694;8.934;2023-09-30T14:58:27;7.85;;;4.05;;